Time;durP1;ratioP1;P1;durP2;ratioP2;P2;SDS_P1;SDS_P2;PMS_P1;PMS_P2;Temp;Humidity;BMP_temperature;BMP_pressure;BME280_temperature;BME280_humidity;BME280_pressure;Samples;Min_cycle;Max_cycle;Signal;HPM_P1;HPM_P2
2022/07/18 00:01:01;;;;;;;6.13;5.63;;;14.20;89.30;;;;;;5045085;28;20189;-50
2022/07/18 00:03:26;;;;;;;6.47;5.97;;;14.20;89.80;;;;;;5051180;28;20193;-53
2022/07/18 00:05:53;;;;;;;5.90;5.50;;;14.20;90.20;;;;;;5047964;28;20193;-53
2022/07/18 00:08:18;;;;;;;5.90;5.40;;;14.10;90.50;;;;;;5051130;28;20273;-54
2022/07/18 00:10:44;;;;;;;5.43;5.03;;;14.10;91.00;;;;;;5046443;28;20519;-55
2022/07/18 00:13:10;;;;;;;6.23;5.13;;;14.10;91.30;;;;;;5051462;28;20202;-51
2022/07/18 00:15:36;;;;;;;6.03;5.43;;;14.00;91.40;;;;;;5049314;28;20190;-55
2022/07/18 00:18:03;;;;;;;5.70;5.30;;;14.00;91.90;;;;;;5052284;28;20416;-57
2022/07/18 00:20:29;;;;;;;6.03;5.60;;;13.90;91.70;;;;;;5047549;28;20424;-54
2022/07/18 00:22:55;;;;;;;6.07;5.67;;;13.90;91.90;;;;;;5050950;28;20561;-54
2022/07/18 00:25:22;;;;;;;6.57;5.97;;;13.90;92.20;;;;;;5050193;28;20500;-53
2022/07/18 00:27:47;;;;;;;5.80;5.30;;;13.90;92.50;;;;;;5049434;28;20440;-56
2022/07/18 00:30:13;;;;;;;6.17;5.67;;;13.90;92.90;;;;;;5035002;28;20434;-52
2022/07/18 00:32:39;;;;;;;5.93;5.50;;;13.90;93.20;;;;;;5051328;28;20257;-51
2022/07/18 00:35:05;;;;;;;6.13;5.63;;;13.80;93.60;;;;;;5050992;28;20494;-54
2022/07/18 00:37:31;;;;;;;5.50;5.20;;;13.80;94.00;;;;;;5049114;28;20192;-55
2022/07/18 00:39:56;;;;;;;6.23;5.83;;;13.70;94.40;;;;;;5048857;28;20479;-49
2022/07/18 00:42:22;;;;;;;6.23;5.83;;;13.70;94.60;;;;;;5048343;28;20194;-54
2022/07/18 00:44:55;;;;;;;5.97;5.57;;;13.60;94.90;;;;;;5048920;28;20294;-56
2022/07/18 00:47:21;;;;;;;6.00;5.60;;;13.60;95.20;;;;;;5050064;28;20190;-54
2022/07/18 00:49:47;;;;;;;5.73;5.30;;;13.50;95.60;;;;;;5046343;28;20449;-54
2022/07/18 00:52:13;;;;;;;6.47;5.87;;;13.50;95.90;;;;;;5045509;28;22213;-49
2022/07/18 00:54:39;;;;;;;6.00;5.60;;;13.50;96.20;;;;;;5047097;28;20384;-53
2022/07/18 00:57:05;;;;;;;6.40;5.80;;;13.40;96.40;;;;;;5038040;28;21062;-55
2022/07/18 01:02:16;;;;;;;6.33;5.70;;;13.40;96.90;;;;;;5047031;28;20439;-56
2022/07/18 01:04:42;;;;;;;5.40;5.10;;;13.40;96.50;;;;;;5046998;28;20444;-54
2022/07/18 01:07:08;;;;;;;6.27;5.83;;;13.40;97.10;;;;;;5042252;28;20221;-55
2022/07/18 01:09:33;;;;;;;5.90;5.50;;;13.40;97.30;;;;;;5050375;28;20452;-53
2022/07/18 01:12:00;;;;;;;6.63;6.13;;;13.40;97.70;;;;;;5049222;28;20956;-53
2022/07/18 01:14:26;;;;;;;7.40;6.70;;;13.30;98.10;;;;;;5049958;28;20229;-56
2022/07/18 01:16:52;;;;;;;6.70;6.20;;;13.30;98.40;;;;;;5049953;28;20806;-55
2022/07/18 01:19:17;;;;;;;7.37;6.73;;;13.20;98.90;;;;;;5049676;28;20437;-54
2022/07/18 01:21:43;;;;;;;7.10;6.50;;;13.20;99.00;;;;;;5047302;28;20191;-56
2022/07/18 01:24:09;;;;;;;7.00;6.40;;;13.10;99.40;;;;;;5049561;28;20194;-55
2022/07/18 01:26:36;;;;;;;7.10;6.50;;;13.20;99.70;;;;;;5052874;28;20652;-57
2022/07/18 01:29:02;;;;;;;7.17;6.57;;;13.10;99.90;;;;;;5049724;28;20260;-55
2022/07/18 01:31:30;;;;;;;8.43;6.67;;;13.00;99.90;;;;;;5046053;28;20875;-55
2022/07/18 01:33:55;;;;;;;7.23;6.70;;;13.00;99.90;;;;;;5051789;28;21040;-56
2022/07/18 01:36:21;;;;;;;6.93;6.37;;;13.10;99.90;;;;;;5055031;28;20428;-51
2022/07/18 01:38:46;;;;;;;7.00;6.50;;;13.10;99.90;;;;;;5048261;28;21067;-54
2022/07/18 01:41:12;;;;;;;6.73;6.07;;;13.00;99.90;;;;;;5045676;28;20265;-55
2022/07/18 01:43:42;;;;;;;7.70;7.00;;;13.00;99.90;;;;;;5049437;28;20222;-56
2022/07/18 01:46:09;;;;;;;7.30;6.60;;;12.90;99.90;;;;;;5049079;28;20193;-55
2022/07/18 01:48:37;;;;;;;7.20;6.50;;;12.90;99.90;;;;;;5050297;28;20910;-55
2022/07/18 01:51:03;;;;;;;6.83;6.13;;;12.90;99.90;;;;;;5048230;28;20918;-53
2022/07/18 01:53:28;;;;;;;7.50;6.90;;;12.90;99.90;;;;;;5049231;28;20463;-54
2022/07/18 01:55:54;;;;;;;7.27;6.67;;;12.90;99.90;;;;;;5044978;28;20190;-56
2022/07/18 01:58:20;;;;;;;7.30;6.60;;;12.80;99.90;;;;;;5048657;28;20182;-56
2022/07/18 02:00:45;;;;;;;7.10;6.50;;;12.80;99.90;;;;;;5048399;28;20193;-56
2022/07/18 02:03:11;;;;;;;6.80;6.20;;;12.70;99.90;;;;;;5047147;28;20201;-54
2022/07/18 02:05:37;;;;;;;7.27;6.40;;;12.70;99.90;;;;;;5049907;28;20204;-55
2022/07/18 02:08:02;;;;;;;7.90;7.20;;;12.70;99.90;;;;;;5047839;28;20209;-57
2022/07/18 02:10:28;;;;;;;7.07;6.57;;;12.70;99.90;;;;;;5046671;28;20210;-55
2022/07/18 02:12:54;;;;;;;7.10;6.50;;;12.70;99.90;;;;;;5046935;28;20501;-55
2022/07/18 02:15:19;;;;;;;7.57;6.87;;;12.60;99.90;;;;;;5047738;28;20201;-54
2022/07/18 02:17:45;;;;;;;7.77;7.17;;;12.60;99.90;;;;;;5044406;28;20959;-56
2022/07/18 02:20:13;;;;;;;8.30;7.60;;;12.50;99.90;;;;;;5042192;28;20178;-52
2022/07/18 02:22:39;;;;;;;11.83;9.27;;;12.60;99.90;;;;;;5044971;28;20487;-51
2022/07/18 02:25:05;;;;;;;9.70;8.73;;;12.50;99.90;;;;;;5049070;28;20468;-57
2022/07/18 02:27:30;;;;;;;11.37;7.83;;;12.50;99.90;;;;;;5047812;28;20445;-55
2022/07/18 02:29:57;;;;;;;11.93;10.87;;;12.50;99.90;;;;;;5041584;28;20430;-54
2022/07/18 02:32:23;;;;;;;12.80;11.57;;;12.40;99.90;;;;;;5047796;28;20186;-56
2022/07/18 02:34:49;;;;;;;11.10;10.20;;;12.40;99.90;;;;;;5052090;28;20486;-54
2022/07/18 02:37:14;;;;;;;13.27;11.90;;;12.40;99.90;;;;;;5055253;28;20186;-53
2022/07/18 02:39:40;;;;;;;12.97;11.43;;;12.40;99.90;;;;;;5045861;28;20185;-55
2022/07/18 02:42:06;;;;;;;13.40;12.10;;;12.30;99.90;;;;;;5045117;28;20182;-55
2022/07/18 02:44:32;;;;;;;12.80;11.60;;;12.30;99.90;;;;;;5048137;28;20237;-55
2022/07/18 02:46:57;;;;;;;13.30;12.00;;;12.30;99.90;;;;;;5048363;28;20893;-56
2022/07/18 02:49:26;;;;;;;14.87;12.87;;;12.30;99.90;;;;;;5049090;28;20185;-54
2022/07/18 02:51:57;;;;;;;15.80;14.20;;;12.20;99.90;;;;;;5046701;28;20186;-54
2022/07/18 02:54:25;;;;;;;14.20;12.80;;;12.10;99.90;;;;;;5047062;28;20465;-53
2022/07/18 02:56:51;;;;;;;14.00;12.57;;;12.10;99.90;;;;;;5048184;28;20512;-55
2022/07/18 02:59:16;;;;;;;15.40;13.90;;;12.10;99.90;;;;;;5049094;28;20401;-55
2022/07/18 03:01:42;;;;;;;15.63;14.03;;;12.10;99.90;;;;;;5035154;28;20461;-55
2022/07/18 03:04:07;;;;;;;16.53;14.93;;;12.10;99.90;;;;;;5045355;28;20194;-56
2022/07/18 03:06:33;;;;;;;16.40;14.90;;;12.10;99.90;;;;;;5048167;28;20686;-51
2022/07/18 03:08:58;;;;;;;17.13;15.50;;;12.00;99.90;;;;;;5048831;28;20208;-52
2022/07/18 03:11:24;;;;;;;17.47;15.00;;;12.00;99.90;;;;;;5036416;28;20190;-50
2022/07/18 03:13:49;;;;;;;18.30;16.30;;;12.00;99.90;;;;;;5029117;28;20532;-54
2022/07/18 03:16:15;;;;;;;17.73;16.00;;;12.00;99.90;;;;;;5029546;28;20629;-56
2022/07/18 03:18:41;;;;;;;17.37;15.63;;;12.00;99.90;;;;;;5029603;28;20642;-55
2022/07/18 03:21:06;;;;;;;18.03;16.23;;;12.00;99.90;;;;;;5035307;28;20209;-53
2022/07/18 03:23:32;;;;;;;18.60;16.07;;;11.90;99.90;;;;;;5047506;28;20209;-57
2022/07/18 03:25:57;;;;;;;17.80;14.97;;;11.90;99.90;;;;;;5042801;28;20237;-53
2022/07/18 03:28:23;;;;;;;18.10;16.13;;;11.90;99.90;;;;;;5044077;28;20711;-55
2022/07/18 03:30:48;;;;;;;18.03;16.17;;;11.90;99.90;;;;;;5046616;28;20206;-51
2022/07/18 03:33:14;;;;;;;17.30;15.50;;;11.90;99.90;;;;;;5049192;28;20202;-54
2022/07/18 03:35:40;;;;;;;18.20;15.97;;;11.90;99.90;;;;;;5056476;28;20178;-54
2022/07/18 03:38:05;;;;;;;17.13;15.40;;;11.90;99.90;;;;;;5046552;28;20194;-52
2022/07/18 03:40:31;;;;;;;18.43;16.40;;;11.90;99.90;;;;;;5047726;28;20186;-56
2022/07/18 03:42:57;;;;;;;18.20;16.50;;;11.80;99.90;;;;;;5041118;28;20290;-54
2022/07/18 03:45:23;;;;;;;16.33;14.67;;;11.90;99.90;;;;;;5040219;28;20561;-55
2022/07/18 03:47:48;;;;;;;16.23;14.53;;;11.90;99.90;;;;;;5046658;28;20182;-54
2022/07/18 03:50:14;;;;;;;15.00;13.60;;;11.90;99.90;;;;;;5046413;28;20198;-53
2022/07/18 03:52:40;;;;;;;14.03;12.73;;;11.90;99.90;;;;;;5043518;28;20243;-56
2022/07/18 03:55:06;;;;;;;13.43;12.27;;;11.90;99.90;;;;;;5048533;28;20206;-55
2022/07/18 03:57:32;;;;;;;13.27;11.97;;;11.90;99.90;;;;;;5045830;28;20178;-55
2022/07/18 03:59:57;;;;;;;11.53;10.43;;;12.00;99.90;;;;;;5048727;28;21084;-53
2022/07/18 04:02:23;;;;;;;11.57;10.50;;;12.00;99.90;;;;;;5039249;28;20198;-55
2022/07/18 04:04:49;;;;;;;9.17;8.33;;;12.00;99.90;;;;;;5048377;28;20177;-52
2022/07/18 04:07:14;;;;;;;9.50;7.90;;;12.00;99.90;;;;;;5051551;28;20197;-55
2022/07/18 04:09:40;;;;;;;8.47;7.73;;;11.90;99.90;;;;;;5049556;28;20217;-52
2022/07/18 04:12:05;;;;;;;9.30;7.90;;;11.90;99.90;;;;;;5047545;28;20186;-54
2022/07/18 04:14:31;;;;;;;8.40;7.60;;;11.90;99.90;;;;;;5042702;28;20213;-53
2022/07/18 04:16:56;;;;;;;8.50;7.80;;;11.90;99.90;;;;;;5040641;28;20954;-54
2022/07/18 04:19:24;;;;;;;8.30;7.60;;;11.90;99.90;;;;;;5041113;28;20182;-52
2022/07/18 04:21:49;;;;;;;13.10;7.90;;;12.00;99.90;;;;;;5042220;28;20179;-54
2022/07/18 04:24:15;;;;;;;9.93;8.93;;;12.00;99.90;;;;;;5040321;28;20875;-52
2022/07/18 04:26:41;;;;;;;9.90;9.00;;;12.00;99.90;;;;;;5041257;28;20608;-53
2022/07/18 04:29:06;;;;;;;9.23;8.43;;;12.00;99.90;;;;;;5041526;28;20284;-51
2022/07/18 04:31:32;;;;;;;9.90;9.00;;;12.10;99.90;;;;;;5041701;28;21047;-53
2022/07/18 04:33:57;;;;;;;11.10;10.00;;;12.10;99.90;;;;;;5041463;28;20218;-54
2022/07/18 04:36:25;;;;;;;11.47;9.90;;;12.20;99.90;;;;;;5041814;28;20719;-55
2022/07/18 04:38:51;;;;;;;10.77;9.57;;;12.20;99.90;;;;;;5040363;28;20244;-55
2022/07/18 04:41:19;;;;;;;11.30;10.30;;;12.30;99.90;;;;;;5046500;28;20441;-51
2022/07/18 04:43:45;;;;;;;11.50;10.43;;;12.40;99.90;;;;;;5049542;28;20542;-54
2022/07/18 04:46:11;;;;;;;11.47;9.67;;;12.40;99.90;;;;;;5052315;28;20452;-49
2022/07/18 04:48:38;;;;;;;11.27;10.07;;;12.50;99.90;;;;;;5054061;28;20930;-55
2022/07/18 04:51:04;;;;;;;12.33;10.97;;;12.60;99.90;;;;;;5051410;28;20182;-55
2022/07/18 04:53:29;;;;;;;11.40;10.30;;;12.70;99.90;;;;;;5039528;28;20822;-50
2022/07/18 04:55:55;;;;;;;12.13;10.87;;;12.90;99.90;;;;;;5040971;28;20432;-52
2022/07/18 04:58:21;;;;;;;11.17;10.13;;;13.00;99.90;;;;;;5049972;28;20183;-53
2022/07/18 05:00:46;;;;;;;10.23;9.33;;;13.00;99.90;;;;;;5044874;28;20183;-55
2022/07/18 05:03:14;;;;;;;10.70;9.60;;;13.10;99.90;;;;;;5031148;28;20250;-56
2022/07/18 05:05:39;;;;;;;10.73;9.80;;;13.20;99.90;;;;;;5034816;28;20190;-54
2022/07/18 05:08:05;;;;;;;10.40;9.43;;;13.30;99.90;;;;;;5046721;28;20459;-55
2022/07/18 05:10:32;;;;;;;9.40;8.50;;;13.30;99.90;;;;;;5049367;28;20615;-55
2022/07/18 05:12:57;;;;;;;9.80;8.70;;;13.40;99.90;;;;;;5050138;28;20427;-56
2022/07/18 05:15:24;;;;;;;10.80;8.20;;;13.40;99.90;;;;;;5049218;28;20793;-54
2022/07/18 05:17:50;;;;;;;9.60;8.70;;;13.60;99.90;;;;;;5048419;28;20680;-52
2022/07/18 05:20:18;;;;;;;9.77;8.87;;;13.70;99.90;;;;;;5049917;28;20401;-55
2022/07/18 05:22:44;;;;;;;10.30;9.23;;;13.70;99.90;;;;;;5043978;28;20428;-52
2022/07/18 05:25:11;;;;;;;10.50;9.60;;;13.80;99.90;;;;;;5047398;28;20512;-52
2022/07/18 05:27:37;;;;;;;9.70;8.80;;;13.90;99.90;;;;;;5041379;28;20452;-55
2022/07/18 05:30:05;;;;;;;11.07;10.00;;;14.00;99.90;;;;;;5048410;28;20401;-54
2022/07/18 05:32:30;;;;;;;8.67;7.87;;;14.20;99.90;;;;;;5037592;28;20428;-50
2022/07/18 05:34:56;;;;;;;7.70;7.00;;;14.20;99.30;;;;;;5052069;28;20463;-57
2022/07/18 05:37:21;;;;;;;6.70;6.20;;;14.20;98.30;;;;;;5058765;28;20181;-54
2022/07/18 05:39:48;;;;;;;8.20;7.40;;;14.30;98.10;;;;;;5048325;28;20954;-54
2022/07/18 05:42:13;;;;;;;7.73;7.07;;;14.40;97.70;;;;;;5051567;28;20245;-53
2022/07/18 05:44:39;;;;;;;8.17;7.23;;;14.50;97.20;;;;;;5047553;28;20928;-54
2022/07/18 05:47:04;;;;;;;8.13;7.20;;;14.60;97.10;;;;;;5042563;28;20186;-54
2022/07/18 05:49:30;;;;;;;8.20;7.40;;;14.70;96.70;;;;;;5046703;28;20215;-55
2022/07/18 05:51:56;;;;;;;6.70;6.20;;;14.80;96.20;;;;;;5043158;28;20183;-51
2022/07/18 05:54:21;;;;;;;9.57;6.40;;;14.90;96.20;;;;;;5046928;28;20213;-56
2022/07/18 05:56:51;;;;;;;7.00;6.40;;;15.00;95.90;;;;;;5046236;28;20186;-53
2022/07/18 05:59:18;;;;;;;7.40;6.80;;;15.20;95.40;;;;;;5046662;28;20185;-57
2022/07/18 06:01:43;;;;;;;8.43;6.43;;;15.30;94.80;;;;;;5047687;28;20984;-50
2022/07/18 06:04:09;;;;;;;7.30;6.70;;;15.50;93.90;;;;;;5046217;28;20524;-54
2022/07/18 06:06:35;;;;;;;7.20;6.60;;;15.60;93.60;;;;;;5046705;28;20190;-54
2022/07/18 06:09:01;;;;;;;8.90;6.73;;;15.60;93.40;;;;;;5036872;28;20189;-53
2022/07/18 06:11:27;;;;;;;6.77;6.17;;;15.70;93.40;;;;;;5047492;28;20442;-55
2022/07/18 06:13:53;;;;;;;7.87;7.07;;;15.80;92.90;;;;;;5047013;28;20468;-55
2022/07/18 06:16:18;;;;;;;6.50;6.00;;;15.80;92.60;;;;;;5047604;28;20192;-49
2022/07/18 06:18:44;;;;;;;9.37;6.70;;;15.90;92.00;;;;;;5043221;28;20684;-52
2022/07/18 06:21:09;;;;;;;6.60;5.90;;;16.00;92.30;;;;;;5034143;28;20185;-51
2022/07/18 06:23:35;;;;;;;6.67;6.27;;;16.00;92.20;;;;;;5037460;28;20188;-52
2022/07/18 06:26:01;;;;;;;7.20;6.63;;;16.10;92.10;;;;;;5043209;28;20195;-54
2022/07/18 06:28:28;;;;;;;8.57;6.33;;;16.20;92.20;;;;;;5046547;28;20187;-51
2022/07/18 06:30:54;;;;;;;6.60;6.20;;;16.30;91.90;;;;;;5046352;28;21358;-54
2022/07/18 06:33:20;;;;;;;6.30;5.80;;;16.50;91.40;;;;;;5046804;28;20463;-57
2022/07/18 06:35:46;;;;;;;9.10;6.20;;;16.70;90.30;;;;;;5044753;28;20438;-56
2022/07/18 06:38:13;;;;;;;6.30;5.80;;;16.90;90.20;;;;;;5046729;28;20877;-57
2022/07/18 06:40:39;;;;;;;6.80;6.40;;;17.00;89.70;;;;;;5036169;28;20436;-57
2022/07/18 06:43:06;;;;;;;7.40;6.10;;;17.20;89.00;;;;;;5034774;28;20432;-54
2022/07/18 06:45:31;;;;;;;6.40;5.90;;;17.40;85.30;;;;;;5044952;28;20566;-57
2022/07/18 06:47:57;;;;;;;8.03;5.50;;;17.50;84.70;;;;;;5039753;28;20441;-57
2022/07/18 06:50:23;;;;;;;6.53;5.83;;;17.60;82.80;;;;;;5038973;28;20436;-55
2022/07/18 06:52:48;;;;;;;6.00;5.60;;;17.70;82.40;;;;;;5045216;28;20222;-58
2022/07/18 06:55:14;;;;;;;6.70;6.17;;;17.80;81.70;;;;;;5043662;28;20550;-53
2022/07/18 06:57:41;;;;;;;6.13;5.70;;;18.00;81.10;;;;;;5042047;28;20203;-56
2022/07/18 07:00:09;;;;;;;6.13;5.67;;;18.10;80.50;;;;;;5041412;28;20182;-53
2022/07/18 07:02:39;;;;;;;6.17;5.60;;;18.30;79.50;;;;;;5037947;28;20460;-58
2022/07/18 07:05:05;;;;;;;6.00;5.60;;;18.40;79.10;;;;;;5038152;28;20503;-58
2022/07/18 07:07:31;;;;;;;6.80;6.40;;;18.60;78.90;;;;;;5041760;28;20516;-56
2022/07/18 07:09:56;;;;;;;8.93;6.70;;;18.80;78.70;;;;;;5038434;28;20414;-54
2022/07/18 07:12:22;;;;;;;6.10;5.70;;;19.00;76.50;;;;;;5038690;28;20676;-57
2022/07/18 07:14:48;;;;;;;6.53;6.03;;;19.10;74.70;;;;;;5037659;28;20195;-57
2022/07/18 07:17:13;;;;;;;6.43;5.93;;;19.20;73.50;;;;;;5042991;28;20786;-57
2022/07/18 07:19:39;;;;;;;6.73;6.23;;;19.40;71.70;;;;;;5033742;28;20179;-57
2022/07/18 07:22:04;;;;;;;5.87;5.40;;;19.60;71.00;;;;;;5027671;28;20656;-58
2022/07/18 07:24:30;;;;;;;6.63;6.23;;;19.80;69.90;;;;;;5033952;28;20190;-56
2022/07/18 07:26:55;;;;;;;6.27;5.67;;;19.90;67.40;;;;;;5030569;28;20229;-58
2022/07/18 07:29:21;;;;;;;6.20;5.60;;;20.10;66.40;;;;;;5029712;28;20562;-57
2022/07/18 07:31:46;;;;;;;5.73;5.23;;;20.30;62.60;;;;;;5042133;28;20184;-54
2022/07/18 07:34:12;;;;;;;7.00;6.40;;;20.50;60.70;;;;;;5046083;28;20614;-58
2022/07/18 07:36:38;;;;;;;7.30;6.00;;;20.70;58.80;;;;;;5044208;28;20217;-57
2022/07/18 07:39:03;;;;;;;6.30;5.80;;;20.90;57.40;;;;;;5046519;28;20193;-55
2022/07/18 07:41:29;;;;;;;6.70;6.30;;;21.10;56.20;;;;;;5045486;28;20195;-57
2022/07/18 07:43:55;;;;;;;5.80;5.40;;;21.30;55.70;;;;;;5041327;28;20231;-58
2022/07/18 07:46:20;;;;;;;6.40;5.90;;;21.50;52.90;;;;;;5041457;28;20176;-56
2022/07/18 07:48:47;;;;;;;5.60;5.10;;;21.50;50.50;;;;;;5039348;28;20267;-57
2022/07/18 07:51:13;;;;;;;6.30;5.90;;;21.60;50.00;;;;;;5046205;28;20184;-58
2022/07/18 07:53:39;;;;;;;5.73;5.00;;;21.70;48.70;;;;;;5039478;28;20487;-57
2022/07/18 07:56:05;;;;;;;6.13;5.63;;;21.80;48.40;;;;;;5031162;28;20412;-57
2022/07/18 07:58:30;;;;;;;6.20;5.80;;;22.00;48.10;;;;;;5030932;28;20189;-58
2022/07/18 08:00:56;;;;;;;5.57;5.27;;;22.00;48.00;;;;;;5038208;28;20188;-57
2022/07/18 08:03:21;;;;;;;5.70;5.40;;;22.20;47.70;;;;;;5051951;28;20255;-58
2022/07/18 08:05:50;;;;;;;5.30;5.00;;;22.40;47.00;;;;;;5050165;28;20281;-54
2022/07/18 08:08:17;;;;;;;5.93;5.53;;;22.70;45.90;;;;;;5051781;28;20209;-58
2022/07/18 08:10:44;;;;;;;6.20;5.77;;;22.90;44.60;;;;;;5049656;28;21270;-55
2022/07/18 08:13:10;;;;;;;5.87;5.30;;;23.10;44.70;;;;;;5030930;28;20932;-57
2022/07/18 08:15:37;;;;;;;5.23;4.70;;;23.30;41.90;;;;;;5045394;28;20800;-56
2022/07/18 08:18:03;;;;;;;5.03;4.73;;;23.50;40.30;;;;;;5057387;28;20489;-58
2022/07/18 08:20:30;;;;;;;5.80;5.50;;;23.60;40.30;;;;;;5050915;28;20743;-57
2022/07/18 08:23:05;;;;;;;5.77;5.40;;;23.60;38.70;;;;;;5038689;28;20185;-58
2022/07/18 08:25:33;;;;;;;5.53;5.03;;;23.80;37.80;;;;;;5050828;28;20475;-55
2022/07/18 08:27:59;;;;;;;5.40;5.10;;;23.90;37.70;;;;;;5042315;28;20927;-58
2022/07/18 08:30:26;;;;;;;5.77;5.37;;;24.00;38.30;;;;;;5051288;28;20483;-54
2022/07/18 08:32:52;;;;;;;5.50;5.03;;;24.10;39.00;;;;;;5052392;28;20436;-57
2022/07/18 08:35:17;;;;;;;5.83;5.47;;;24.20;37.80;;;;;;5050543;28;20977;-57
2022/07/18 08:37:43;;;;;;;5.13;4.73;;;24.40;37.80;;;;;;5046937;28;20849;-57
2022/07/18 08:40:10;;;;;;;5.67;5.27;;;24.60;37.30;;;;;;5051105;28;20187;-57
2022/07/18 08:42:36;;;;;;;5.67;5.27;;;24.70;37.30;;;;;;5048509;28;20182;-54
2022/07/18 08:45:02;;;;;;;5.70;5.30;;;24.90;37.60;;;;;;5049921;28;20831;-57
2022/07/18 08:47:29;;;;;;;5.13;4.83;;;25.10;35.30;;;;;;5049122;28;20434;-58
2022/07/18 08:49:56;;;;;;;5.50;4.80;;;25.30;34.10;;;;;;5038287;28;20923;-57
2022/07/18 08:52:21;;;;;;;5.70;5.30;;;25.40;33.50;;;;;;5044477;28;20439;-58
2022/07/18 08:54:48;;;;;;;4.87;4.57;;;25.40;32.40;;;;;;5048101;28;20812;-58
2022/07/18 08:57:15;;;;;;;5.33;4.97;;;25.60;32.70;;;;;;5046495;28;20184;-58
2022/07/18 08:59:41;;;;;;;5.67;5.27;;;25.60;32.70;;;;;;5047312;28;20439;-58
2022/07/18 09:02:10;;;;;;;5.23;4.93;;;25.80;32.80;;;;;;5047307;28;20783;-59
2022/07/18 09:04:43;;;;;;;5.40;5.00;;;25.90;31.70;;;;;;5034671;28;20172;-57
2022/07/18 09:07:21;;;;;;;5.40;5.10;;;25.90;30.70;;;;;;5044037;28;20451;-57
2022/07/18 09:09:54;;;;;;;5.20;4.83;;;26.10;30.40;;;;;;5048032;28;20505;-57
2022/07/18 09:12:20;;;;;;;5.33;4.93;;;26.10;30.40;;;;;;5045074;28;20429;-57
2022/07/18 09:14:46;;;;;;;5.90;5.40;;;26.30;31.30;;;;;;5047352;28;20471;-58
2022/07/18 09:17:18;;;;;;;5.10;4.80;;;26.40;30.60;;;;;;5046989;28;20473;-58
2022/07/18 09:20:16;;;;;;;5.37;5.03;;;26.60;29.90;;;;;;5048713;28;20432;-59
2022/07/18 09:22:45;;;;;;;5.57;5.03;;;26.60;29.20;;;;;;5005725;28;20440;-57
2022/07/18 09:25:16;;;;;;;6.30;4.87;;;26.70;28.90;;;;;;5041481;28;20437;-57
2022/07/18 09:27:44;;;;;;;5.67;5.27;;;26.80;28.90;;;;;;5042691;28;20518;-58
2022/07/18 09:30:25;;;;;;;5.20;4.90;;;26.90;28.90;;;;;;5041922;28;20803;-58
2022/07/18 09:33:07;;;;;;;5.80;5.20;;;27.10;27.70;;;;;;5045215;28;20448;-58
2022/07/18 09:35:47;;;;;;;4.90;4.60;;;27.20;27.20;;;;;;5045814;28;20451;-58
2022/07/18 09:38:16;;;;;;;4.90;4.60;;;27.20;27.40;;;;;;5036172;28;20789;-58
2022/07/18 09:40:44;;;;;;;5.67;5.13;;;27.20;27.20;;;;;;5048123;28;20969;-58
2022/07/18 09:43:18;;;;;;;5.60;5.10;;;27.30;27.50;;;;;;5046437;28;20433;-58
2022/07/18 09:45:49;;;;;;;5.40;5.00;;;27.40;27.80;;;;;;5048200;28;20424;-58
2022/07/18 09:48:21;;;;;;;6.27;5.70;;;27.40;26.80;;;;;;5047005;28;20409;-58
2022/07/18 09:50:55;;;;;;;5.17;4.87;;;27.30;26.60;;;;;;5048047;28;20409;-57
2022/07/18 09:53:30;;;;;;;5.37;4.93;;;27.40;27.40;;;;;;5041088;28;20846;-59
2022/07/18 09:56:04;;;;;;;5.20;4.90;;;27.50;27.90;;;;;;5043655;28;20457;-58
2022/07/18 09:58:32;;;;;;;5.03;4.63;;;27.70;27.20;;;;;;5040188;28;20431;-57
2022/07/18 10:01:00;;;;;;;5.20;4.90;;;28.00;27.70;;;;;;5044801;28;20919;-57
2022/07/18 10:03:27;;;;;;;4.40;4.20;;;28.20;39.10;;;;;;5040743;28;21297;-58
2022/07/18 10:05:57;;;;;;;5.50;5.07;;;28.40;38.30;;;;;;5042687;28;20931;-59
2022/07/18 10:08:25;;;;;;;5.90;5.33;;;28.60;38.40;;;;;;5042429;28;20522;-58
2022/07/18 10:10:52;;;;;;;7.67;5.20;;;28.90;36.20;;;;;;5042960;28;20866;-59
2022/07/18 10:13:19;;;;;;;4.73;4.43;;;29.10;35.30;;;;;;5030066;28;20429;-59
2022/07/18 10:15:46;;;;;;;5.47;5.17;;;29.20;34.50;;;;;;5047827;28;20411;-57
2022/07/18 10:18:17;;;;;;;5.60;5.20;;;29.40;34.10;;;;;;5044733;28;20496;-58
2022/07/18 10:21:01;;;;;;;4.70;4.40;;;29.50;33.00;;;;;;5046309;28;20467;-59
2022/07/18 10:23:42;;;;;;;5.07;4.73;;;29.60;33.00;;;;;;5043965;28;20417;-58
2022/07/18 10:26:12;;;;;;;5.40;5.10;;;29.80;32.50;;;;;;5028361;28;20429;-59
2022/07/18 10:29:00;;;;;;;5.80;5.23;;;30.00;30.90;;;;;;5045695;28;20495;-58
2022/07/18 10:31:32;;;;;;;5.90;5.50;;;30.10;29.20;;;;;;5046738;28;20436;-59
2022/07/18 10:34:07;;;;;;;5.37;5.00;;;29.90;29.20;;;;;;5046900;28;20464;-59
2022/07/18 10:36:35;;;;;;;6.70;5.17;;;30.10;29.90;;;;;;5046252;28;20458;-58
2022/07/18 10:39:21;;;;;;;6.30;5.67;;;30.20;30.00;;;;;;5047552;28;21270;-58
2022/07/18 10:41:46;;;;;;;5.20;4.90;;;30.30;27.40;;;;;;5045271;28;20456;-59
2022/07/18 10:44:24;;;;;;;5.90;5.50;;;30.40;26.90;;;;;;5046993;28;20496;-56
2022/07/18 10:49:56;;;;;;;6.13;5.63;;;30.70;25.40;;;;;;5045417;28;21192;-59
2022/07/18 10:52:25;;;;;;;5.77;5.27;;;30.60;25.10;;;;;;5037785;28;20435;-58
2022/07/18 10:55:02;;;;;;;5.57;5.27;;;30.60;24.30;;;;;;5046906;28;20950;-58
2022/07/18 10:57:39;;;;;;;5.50;5.20;;;30.70;25.00;;;;;;5052552;28;20918;-57
2022/07/18 11:00:26;;;;;;;5.80;5.50;;;30.80;24.20;;;;;;5046791;28;20466;-55
2022/07/18 11:03:07;;;;;;;6.30;5.80;;;30.90;25.30;;;;;;5041616;28;20420;-59
2022/07/18 11:05:54;;;;;;;6.00;5.60;;;31.10;24.80;;;;;;5043956;28;20483;-59
2022/07/18 11:08:24;;;;;;;5.67;5.37;;;31.30;22.10;;;;;;5044490;28;20470;-56
2022/07/18 11:11:01;;;;;;;5.40;5.00;;;31.30;22.30;;;;;;5047278;28;20452;-59
2022/07/18 11:13:32;;;;;;;6.00;5.60;;;31.20;23.00;;;;;;5048279;28;21025;-58
2022/07/18 11:16:05;;;;;;;5.23;4.93;;;31.20;21.80;;;;;;5051458;28;20448;-59
2022/07/18 11:18:32;;;;;;;5.83;5.43;;;31.40;22.30;;;;;;5052714;28;20416;-59
2022/07/18 11:20:58;;;;;;;6.00;5.60;;;31.60;21.10;;;;;;5051488;28;20428;-60
2022/07/18 11:23:26;;;;;;;5.43;5.03;;;31.70;21.30;;;;;;5052538;28;20428;-59
2022/07/18 11:25:57;;;;;;;6.10;5.70;;;31.90;20.70;;;;;;5050621;28;20428;-59
2022/07/18 11:28:25;;;;;;;5.77;5.47;;;32.20;19.90;;;;;;5049600;28;21000;-59
2022/07/18 11:31:08;;;;;;;5.80;5.50;;;32.30;19.20;;;;;;5050517;28;20460;-60
2022/07/18 11:33:36;;;;;;;5.60;5.20;;;32.30;18.70;;;;;;5045849;28;20494;-60
2022/07/18 11:36:06;;;;;;;6.23;5.70;;;32.30;18.40;;;;;;5049301;28;20417;-59
2022/07/18 11:38:31;;;;;;;5.53;5.10;;;32.30;17.20;;;;;;5043697;28;20420;-58
2022/07/18 11:40:57;;;;;;;5.80;5.40;;;32.20;17.60;;;;;;5051151;28;20439;-59
2022/07/18 11:43:24;;;;;;;6.13;5.73;;;32.40;17.70;;;;;;5061738;28;20649;-59
2022/07/18 11:46:08;;;;;;;5.80;5.30;;;32.70;16.50;;;;;;5052139;28;20214;-59
2022/07/18 11:48:35;;;;;;;6.47;5.97;;;32.70;16.40;;;;;;5044110;28;20425;-59
2022/07/18 11:51:01;;;;;;;6.07;5.63;;;32.70;16.80;;;;;;5049011;28;20511;-60
2022/07/18 11:53:28;;;;;;;6.33;5.97;;;32.80;16.60;;;;;;5047452;28;20479;-55
2022/07/18 11:55:55;;;;;;;6.33;5.93;;;32.90;16.20;;;;;;5048764;28;20451;-54
2022/07/18 11:58:22;;;;;;;6.43;6.13;;;32.90;15.30;;;;;;5049385;28;20534;-53
2022/07/18 12:00:48;;;;;;;6.33;6.03;;;33.00;15.00;;;;;;5049833;28;20420;-52
2022/07/18 12:03:19;;;;;;;6.00;5.70;;;33.30;13.50;;;;;;5042509;28;20459;-54
2022/07/18 12:05:50;;;;;;;6.10;5.70;;;33.20;13.70;;;;;;5049444;28;20452;-54
2022/07/18 12:08:34;;;;;;;5.83;5.53;;;33.10;14.70;;;;;;5048564;28;20456;-52
2022/07/18 12:11:12;;;;;;;6.43;6.13;;;33.00;14.00;;;;;;5049462;28;20429;-56
2022/07/18 12:13:45;;;;;;;6.40;6.10;;;33.00;13.20;;;;;;5047937;28;20521;-54
2022/07/18 12:16:27;;;;;;;6.53;5.93;;;33.00;12.80;;;;;;5049828;28;20428;-56
2022/07/18 12:18:55;;;;;;;5.80;5.50;;;33.00;12.50;;;;;;5048851;28;20926;-50
2022/07/18 12:21:21;;;;;;;6.30;5.90;;;32.70;13.10;;;;;;5049529;28;20499;-53
2022/07/18 12:23:47;;;;;;;5.67;5.37;;;32.80;13.20;;;;;;5045530;28;20441;-52
2022/07/18 12:26:32;;;;;;;6.03;5.73;;;32.70;12.70;;;;;;5048138;28;20444;-55
2022/07/18 12:29:08;;;;;;;6.90;6.50;;;32.80;13.00;;;;;;5047773;28;20190;-56
2022/07/18 12:31:45;;;;;;;5.90;5.60;;;32.70;12.10;;;;;;5038931;28;20425;-53
2022/07/18 12:34:16;;;;;;;6.33;6.03;;;32.50;12.90;;;;;;5036188;28;20468;-53
2022/07/18 12:36:57;;;;;;;6.30;5.90;;;32.40;12.60;;;;;;5049256;28;20421;-53
2022/07/18 12:39:32;;;;;;;6.17;5.73;;;32.60;13.20;;;;;;5047039;28;20432;-54
2022/07/18 12:41:59;;;;;;;6.07;5.77;;;32.70;12.50;;;;;;5048836;28;20511;-54
2022/07/18 12:44:29;;;;;;;6.77;6.20;;;32.90;11.40;;;;;;5046225;28;20496;-54
2022/07/18 12:46:55;;;;;;;6.00;5.60;;;33.10;11.30;;;;;;5048632;28;20431;-55
2022/07/18 12:49:21;;;;;;;6.30;5.10;;;33.20;11.20;;;;;;5041392;28;20437;-51
2022/07/18 12:51:47;;;;;;;5.50;5.10;;;33.40;10.70;;;;;;5047757;28;20428;-54